createdAt,value
2018-11-26T00:01:42.409Z,18.30
2018-11-26T00:04:19.319Z,19.07
2018-11-26T00:07:12.033Z,17.17
2018-11-26T00:09:46.899Z,17.53
2018-11-26T00:15:32.685Z,17.00
2018-11-26T00:18:03.835Z,17.80
2018-11-26T00:20:41.593Z,18.97
2018-11-26T00:23:16.839Z,16.80
2018-11-26T00:25:51.151Z,18.63
2018-11-26T00:28:32.751Z,18.90
2018-11-26T00:31:51.337Z,19.67
2018-11-26T00:34:44.462Z,22.53
2018-11-26T00:37:25.771Z,21.80
2018-11-26T00:40:15.577Z,24.60
2018-11-26T00:42:54.231Z,22.80
2018-11-26T00:45:45.394Z,22.00
2018-11-26T00:48:24.383Z,28.77
2018-11-26T00:51:14.543Z,28.33
2018-11-26T00:53:54.299Z,27.43
2018-11-26T00:56:33.029Z,28.23
2018-11-26T00:59:15.712Z,28.27
2018-11-26T01:02:15.047Z,30.87
2018-11-26T01:05:08.507Z,29.10
2018-11-26T01:07:54.537Z,26.80
2018-11-26T01:10:44.529Z,28.30
2018-11-26T01:13:35.113Z,31.70
2018-11-26T01:16:15.192Z,29.43
2018-11-26T01:18:58.304Z,29.00
2018-11-26T01:21:37.258Z,29.47
2018-11-26T01:26:52.539Z,28.87
2018-11-26T01:29:26.813Z,30.67
2018-11-26T01:32:06.250Z,31.17
2018-11-26T01:37:28.808Z,30.97
2018-11-26T01:39:57.387Z,31.63
2018-11-26T01:42:25.921Z,31.60
2018-11-26T01:44:54.421Z,29.17
2018-11-26T01:47:22.949Z,29.63
2018-11-26T01:49:55.653Z,29.60
2018-11-26T01:52:53.101Z,30.60
2018-11-26T01:55:42.317Z,31.17
2018-11-26T01:58:12.813Z,32.23
2018-11-26T02:05:38.785Z,34.67
2018-11-26T02:08:07.950Z,33.30
2018-11-26T02:10:36.931Z,32.37
2018-11-26T02:13:05.857Z,33.97
2018-11-26T02:16:03.791Z,37.73
2018-11-26T02:19:00.414Z,34.50
2018-11-26T02:21:46.475Z,32.10
2018-11-26T02:27:30.479Z,32.10
2018-11-26T02:30:23.165Z,32.70
2018-11-26T02:33:27.647Z,35.40
2018-11-26T02:36:19.643Z,30.80
2018-11-26T02:45:12.113Z,32.87
2018-11-26T02:48:37.109Z,36.20
2018-11-26T02:51:42.350Z,31.90
2018-11-26T02:55:01.744Z,32.03
2018-11-26T02:57:59.817Z,31.10
2018-11-26T03:00:46.220Z,34.45
2018-11-26T03:03:29.628Z,33.00
2018-11-26T03:13:12.625Z,30.17
2018-11-26T03:16:12.769Z,28.53
2018-11-26T03:19:02.040Z,30.83
2018-11-26T03:21:48.097Z,31.43
2018-11-26T03:24:52.795Z,30.03
2018-11-26T03:30:32.719Z,31.40
2018-11-26T03:33:23.013Z,26.87
2018-11-26T03:36:05.907Z,29.90
2018-11-26T03:39:02.071Z,29.10
2018-11-26T03:41:47.321Z,27.37
2018-11-26T03:44:38.274Z,25.90
2018-11-26T03:47:27.921Z,25.03
2018-11-26T03:50:20.306Z,27.50
2018-11-26T03:53:08.175Z,27.50
2018-11-26T04:02:00.435Z,28.80
2018-11-26T04:04:39.072Z,26.80
2018-11-26T04:10:09.172Z,30.37
2018-11-26T04:18:24.096Z,27.80
2018-11-26T04:21:09.110Z,28.97
2018-11-26T04:23:52.660Z,27.47
2018-11-26T04:26:39.792Z,29.03
2018-11-26T04:35:38.382Z,28.93
2018-11-26T04:38:40.648Z,27.10
2018-11-26T04:41:28.743Z,27.87
2018-11-26T04:44:36.580Z,27.63
2018-11-26T04:47:29.562Z,24.73
2018-11-26T04:53:13.033Z,24.67
2018-11-26T04:59:38.781Z,22.87
2018-11-26T05:05:20.462Z,32.13
2018-11-26T05:07:59.784Z,26.67
2018-11-26T05:10:42.494Z,26.73
2018-11-26T05:13:11.218Z,27.13
2018-11-26T05:15:40.539Z,26.80
2018-11-26T05:18:28.645Z,26.93
2018-11-26T05:21:18.553Z,24.97
2018-11-26T05:23:53.278Z,25.60
2018-11-26T05:26:27.152Z,23.60
2018-11-26T05:29:02.317Z,25.77
2018-11-26T05:31:40.774Z,32.40
2018-11-26T05:34:17.762Z,24.43
2018-11-26T05:36:57.610Z,24.20
2018-11-26T05:54:45.759Z,20.70
2018-11-26T05:57:19.256Z,22.70
2018-11-26T05:59:50.370Z,23.10
2018-11-26T06:02:23.037Z,24.27
2018-11-26T06:04:51.977Z,28.27
2018-11-26T06:07:29.206Z,24.60
2018-11-26T06:10:02.130Z,27.00
2018-11-26T06:12:33.971Z,26.67
2018-11-26T06:15:13.338Z,28.23
2018-11-26T06:17:43.704Z,26.30
2018-11-26T06:20:16.822Z,25.87
2018-11-26T06:22:50.318Z,25.90
2018-11-26T06:25:20.199Z,26.97
2018-11-26T06:27:49.535Z,27.60
2018-11-26T06:30:19.958Z,27.70
2018-11-26T06:32:50.086Z,25.20
2018-11-26T06:35:23.074Z,25.73
2018-11-26T06:40:52.615Z,25.40
2018-11-26T06:43:22.734Z,25.50
2018-11-26T06:45:53.822Z,26.10
2018-11-26T06:48:22.954Z,27.57
2018-11-26T06:50:52.486Z,25.27
2018-11-26T06:53:21.010Z,22.70
2018-11-26T06:55:50.722Z,27.10
2018-11-26T06:58:19.794Z,19.93
2018-11-26T07:00:50.708Z,27.03
2018-11-26T07:03:25.430Z,24.67
2018-11-26T07:05:55.326Z,25.80
2018-11-26T07:08:25.614Z,27.87
2018-11-26T07:10:55.026Z,27.27
2018-11-26T07:13:25.176Z,26.40
2018-11-26T07:15:54.726Z,26.43
2018-11-26T07:18:24.792Z,26.83
2018-11-26T07:20:54.274Z,30.07
2018-11-26T07:23:25.351Z,28.00
2018-11-26T07:25:55.468Z,28.07
2018-11-26T07:28:25.247Z,26.43
2018-11-26T07:30:54.746Z,27.13
2018-11-26T07:33:24.582Z,26.87
2018-11-26T07:35:54.476Z,25.00
2018-11-26T07:38:26.438Z,26.27
2018-11-26T07:40:56.464Z,28.27
2018-11-26T07:43:28.462Z,22.50
2018-11-26T07:45:59.328Z,25.40
2018-11-26T08:02:21.426Z,25.27
2018-11-26T08:05:03.684Z,29.50
2018-11-26T08:07:38.244Z,23.63
2018-11-26T08:13:02.814Z,29.10
2018-11-26T08:18:25.811Z,28.07
2018-11-26T08:20:55.306Z,26.03
2018-11-26T08:23:24.552Z,28.00
2018-11-26T08:25:53.950Z,29.00
2018-11-26T08:28:23.193Z,30.87
2018-11-26T08:30:53.470Z,28.87
2018-11-26T08:33:22.903Z,27.40
2018-11-26T08:35:57.300Z,27.17
2018-11-26T08:38:30.797Z,28.93
2018-11-26T08:41:22.982Z,28.90
2018-11-26T08:44:22.040Z,19.50
2018-11-26T08:47:04.310Z,27.97
2018-11-26T08:49:38.145Z,27.00
2018-11-26T08:52:18.400Z,34.80
2018-11-26T08:54:49.744Z,25.93
2018-11-26T08:57:21.294Z,25.00
2018-11-26T08:59:51.874Z,23.40
2018-11-26T09:02:22.718Z,24.13
2018-11-26T09:04:58.512Z,26.00
2018-11-26T09:07:27.951Z,26.93
2018-11-26T09:09:56.622Z,26.30
2018-11-26T09:12:27.173Z,27.63
2018-11-26T09:15:00.550Z,26.53
2018-11-26T09:17:29.648Z,25.77
2018-11-26T09:22:38.644Z,19.57
2018-11-26T09:25:10.750Z,26.87
2018-11-26T09:27:43.855Z,26.23
2018-11-26T09:30:14.188Z,26.40
2018-11-26T09:32:43.236Z,26.30
2018-11-26T09:35:15.881Z,25.80
2018-11-26T09:37:52.956Z,23.33
2018-11-26T09:40:21.872Z,22.33
2018-11-26T09:42:50.360Z,20.10
2018-11-26T09:45:19.004Z,25.23
2018-11-26T09:47:47.921Z,19.43
2018-11-26T09:50:24.539Z,21.63
2018-11-26T09:52:54.326Z,24.73
2018-11-26T09:55:23.713Z,21.93
2018-11-26T09:57:53.590Z,17.67
2018-11-26T10:00:22.946Z,16.63
2018-11-26T10:02:52.199Z,15.47
2018-11-26T10:05:23.551Z,16.20
2018-11-26T10:07:54.631Z,17.77
2018-11-26T10:10:23.341Z,14.90
2018-11-26T10:12:51.818Z,17.93
2018-11-26T10:15:23.183Z,18.67
2018-11-26T10:17:52.449Z,18.40
2018-11-26T10:20:21.800Z,19.03
2018-11-26T10:22:51.381Z,18.60
2018-11-26T10:25:20.797Z,18.37
2018-11-26T10:27:49.922Z,16.93
2018-11-26T10:30:20.175Z,17.20
2018-11-26T10:32:51.204Z,17.70
2018-11-26T10:35:21.718Z,17.50
2018-11-26T10:37:51.373Z,18.60
2018-11-26T10:40:24.795Z,18.80
2018-11-26T10:42:54.693Z,16.67
2018-11-26T10:45:25.118Z,19.17
2018-11-26T10:47:54.507Z,17.80
2018-11-26T10:50:26.385Z,20.67
2018-11-26T10:52:57.581Z,18.83
2018-11-26T10:55:34.233Z,17.93
2018-11-26T10:58:03.312Z,14.80
2018-11-26T11:00:46.358Z,17.03
2018-11-26T11:03:16.165Z,14.87
2018-11-26T11:05:45.987Z,13.30
2018-11-26T11:08:15.649Z,14.47
2018-11-26T11:10:44.593Z,18.27
2018-11-26T11:13:13.961Z,15.73
2018-11-26T11:15:45.864Z,15.87
2018-11-26T11:18:15.593Z,17.70
2018-11-26T11:20:46.616Z,14.23
2018-11-26T11:23:17.276Z,14.90
2018-11-26T11:25:47.250Z,11.53
2018-11-26T11:28:16.567Z,14.03
2018-11-26T11:30:46.075Z,15.47
2018-11-26T11:35:49.903Z,12.40
2018-11-26T11:38:19.097Z,13.63
2018-11-26T11:40:48.405Z,14.37
2018-11-26T11:46:03.346Z,13.67
2018-11-26T11:48:32.373Z,16.97
2018-11-26T11:51:02.062Z,15.30
2018-11-26T11:53:31.450Z,17.73
2018-11-26T11:56:01.240Z,16.60
2018-11-26T11:58:30.527Z,18.00
2018-11-26T12:01:00.070Z,15.27
2018-11-26T12:03:29.410Z,18.63
2018-11-26T12:05:58.172Z,13.70
2018-11-26T12:08:28.328Z,18.77
2018-11-26T12:10:58.974Z,15.50
2018-11-26T12:13:34.492Z,15.67
2018-11-26T12:16:06.840Z,17.50
2018-11-26T12:18:37.144Z,18.07
2018-11-26T12:21:07.824Z,18.20
2018-11-26T12:23:37.752Z,17.97
2018-11-26T12:26:07.343Z,16.57
2018-11-26T12:28:35.836Z,18.60
2018-11-26T12:31:06.116Z,18.33
2018-11-26T12:33:35.580Z,16.50
2018-11-26T12:36:07.760Z,18.40
2018-11-26T12:38:38.099Z,19.30
2018-11-26T12:41:07.790Z,19.43
2018-11-26T12:43:37.479Z,18.10
2018-11-26T12:46:10.264Z,18.03
2018-11-26T12:48:39.978Z,18.07
2018-11-26T12:51:13.368Z,17.80
2018-11-26T12:53:44.192Z,18.73
2018-11-26T12:56:14.184Z,16.67
2018-11-26T12:58:42.793Z,19.50
2018-11-26T13:01:15.466Z,18.97
2018-11-26T13:03:45.074Z,19.50
2018-11-26T13:06:15.034Z,16.93
2018-11-26T13:08:45.058Z,19.87
2018-11-26T13:11:16.871Z,17.07
2018-11-26T13:14:06.394Z,21.30
2018-11-26T13:16:40.775Z,19.00
2018-11-26T13:19:09.292Z,18.57
2018-11-26T13:21:38.878Z,20.10
2018-11-26T13:24:07.449Z,21.63
2018-11-26T13:26:37.989Z,21.10
2018-11-26T13:29:07.976Z,19.07
2018-11-26T13:31:38.297Z,20.80
2018-11-26T13:34:09.117Z,19.10
2018-11-26T13:36:38.391Z,20.80
2018-11-26T13:39:09.824Z,18.63
2018-11-26T13:41:39.760Z,19.90
2018-11-26T13:44:08.486Z,19.63
2018-11-26T13:46:40.623Z,20.67
2018-11-26T13:49:10.702Z,21.53
2018-11-26T13:51:40.452Z,22.30
2018-11-26T13:54:20.040Z,20.57
2018-11-26T13:56:51.450Z,21.53
2018-11-26T13:59:33.056Z,24.37
2018-11-26T14:02:08.001Z,21.27
2018-11-26T14:04:38.100Z,21.90
2018-11-26T14:07:07.253Z,21.57
2018-11-26T14:09:38.431Z,20.50
2018-11-26T14:12:06.988Z,18.87
2018-11-26T14:14:36.334Z,17.50
2018-11-26T14:17:17.542Z,14.77
2018-11-26T14:19:46.437Z,14.67
2018-11-26T14:22:19.293Z,14.23
2018-11-26T14:24:48.802Z,14.87
2018-11-26T14:30:14.730Z,14.43
2018-11-26T14:32:43.332Z,12.70
2018-11-26T14:35:14.327Z,13.87
2018-11-26T14:37:44.273Z,15.43
2018-11-26T14:40:18.059Z,15.97
2018-11-26T14:42:47.713Z,13.30
2018-11-26T14:45:16.521Z,15.40
2018-11-26T14:47:45.531Z,16.30
2018-11-26T14:50:15.275Z,15.10
2018-11-26T14:52:48.714Z,17.30
2018-11-26T14:55:22.067Z,16.30
2018-11-26T14:57:51.876Z,15.10
2018-11-26T15:00:21.682Z,16.97
2018-11-26T15:02:50.953Z,16.00
2018-11-26T15:05:22.558Z,16.63
2018-11-26T15:07:54.167Z,16.77
2018-11-26T15:10:25.447Z,19.03
2018-11-26T15:12:55.322Z,21.40
2018-11-26T15:15:27.919Z,15.80
2018-11-26T15:17:57.762Z,17.73
2018-11-26T15:20:30.008Z,16.93
2018-11-26T15:23:00.240Z,17.67
2018-11-26T15:25:31.314Z,15.17
2018-11-26T15:28:08.069Z,15.43
2018-11-26T15:30:37.504Z,14.67
2018-11-26T15:33:06.446Z,15.73
2018-11-26T15:35:36.550Z,18.00
2018-11-26T15:38:05.570Z,17.07
2018-11-26T15:40:38.322Z,17.80
2018-11-26T15:43:07.561Z,15.97
2018-11-26T15:45:47.702Z,14.70
2018-11-26T15:48:22.458Z,16.13
2018-11-26T15:50:51.276Z,15.03
2018-11-26T15:53:25.229Z,15.57
2018-11-26T15:55:55.798Z,15.40
2018-11-26T15:58:25.138Z,15.57
2018-11-26T16:00:59.579Z,13.33
2018-11-26T16:03:30.969Z,14.77
2018-11-26T16:06:00.723Z,14.53
2018-11-26T16:08:32.496Z,14.20
2018-11-26T16:11:01.731Z,14.80
2018-11-26T16:13:38.540Z,14.37
2018-11-26T16:16:09.745Z,15.50
2018-11-26T16:18:38.975Z,16.90
2018-11-26T16:21:08.006Z,14.93
2018-11-26T16:23:37.031Z,15.40
2018-11-26T16:26:06.454Z,14.37
2018-11-26T16:28:36.105Z,15.90
2018-11-26T16:31:12.151Z,16.80
2018-11-26T16:33:42.800Z,15.30
2018-11-26T16:36:11.856Z,16.60
2018-11-26T16:38:58.054Z,15.50
2018-11-26T16:41:26.969Z,14.93
2018-11-26T16:43:56.683Z,16.47
2018-11-26T16:46:26.174Z,17.27
2018-11-26T16:48:55.353Z,16.75
2018-11-26T16:51:24.803Z,14.90
2018-11-26T16:53:53.821Z,16.47
2018-11-26T16:56:23.706Z,14.27
2018-11-26T16:58:56.637Z,13.75
2018-11-26T17:01:26.043Z,17.53
2018-11-26T17:03:56.080Z,16.67
2018-11-26T17:06:24.696Z,16.73
2018-11-26T17:09:00.302Z,14.70
2018-11-26T17:11:29.196Z,15.63
2018-11-26T17:13:58.511Z,17.30
2018-11-26T17:16:27.337Z,16.87
2018-11-26T17:18:56.250Z,14.70
2018-11-26T17:21:25.329Z,19.30
2018-11-26T17:23:54.146Z,16.97
2018-11-26T17:26:22.832Z,16.70
2018-11-26T17:28:51.668Z,18.13
2018-11-26T17:31:21.194Z,18.43
2018-11-26T17:33:49.772Z,14.70
2018-11-26T17:36:21.387Z,17.10
2018-11-26T17:38:50.127Z,15.43
2018-11-26T17:41:18.871Z,17.60
2018-11-26T17:43:47.879Z,17.47
2018-11-26T17:46:16.780Z,16.37
2018-11-26T17:48:45.671Z,17.70
2018-11-26T17:51:16.526Z,15.80
2018-11-26T17:53:45.430Z,15.70
2018-11-26T17:56:14.080Z,16.67
2018-11-26T17:58:42.666Z,16.60
2018-11-26T18:01:16.606Z,16.97
2018-11-26T18:03:45.272Z,14.27
2018-11-26T18:06:24.867Z,17.67
2018-11-26T18:08:58.173Z,14.43
2018-11-26T18:11:29.656Z,13.87
2018-11-26T18:14:00.133Z,13.70
2018-11-26T18:16:39.308Z,14.30
2018-11-26T18:19:12.474Z,14.70
2018-11-26T18:21:52.327Z,17.80
2018-11-26T18:24:21.028Z,14.50
2018-11-26T18:26:50.779Z,13.03
2018-11-26T18:29:19.331Z,14.40
2018-11-26T18:31:47.968Z,15.80
2018-11-26T18:34:16.536Z,12.80
2018-11-26T18:36:45.406Z,17.17
2018-11-26T18:39:15.794Z,15.53
2018-11-26T18:41:44.858Z,15.20
2018-11-26T18:44:18.847Z,15.60
2018-11-26T18:46:47.727Z,19.17
2018-11-26T18:49:16.303Z,17.00
2018-11-26T18:51:44.886Z,16.80
2018-11-26T18:54:13.593Z,17.70
2018-11-26T18:56:42.629Z,16.20
2018-11-26T18:59:11.346Z,14.90
2018-11-26T19:01:51.854Z,16.80
2018-11-26T19:04:20.706Z,14.03
2018-11-26T19:06:51.513Z,12.27
2018-11-26T19:09:20.096Z,13.10
2018-11-26T19:11:48.620Z,13.10
2018-11-26T19:14:20.422Z,14.13
2018-11-26T19:16:50.478Z,12.80
2018-11-26T19:19:20.199Z,14.03
2018-11-26T19:21:48.902Z,15.13
2018-11-26T19:24:17.846Z,12.27
2018-11-26T19:26:46.472Z,13.63
2018-11-26T19:29:15.066Z,12.27
2018-11-26T19:31:43.852Z,15.93
2018-11-26T19:34:12.564Z,14.03
2018-11-26T19:36:41.467Z,14.57
2018-11-26T19:39:12.466Z,13.27
2018-11-26T19:41:41.791Z,15.60
2018-11-26T19:44:11.952Z,13.90
2018-11-26T19:46:40.601Z,15.40
2018-11-26T19:49:09.695Z,14.27
2018-11-26T19:51:39.476Z,16.27
2018-11-26T19:54:08.133Z,16.10
2018-11-26T19:56:36.977Z,13.57
2018-11-26T19:59:07.513Z,14.53
2018-11-26T20:01:36.387Z,13.93
2018-11-26T20:04:18.287Z,14.00
2018-11-26T20:06:47.637Z,16.43
2018-11-26T20:09:16.443Z,13.67
2018-11-26T20:11:45.039Z,13.67
2018-11-26T20:14:21.294Z,15.20
2018-11-26T20:16:44.762Z,11.77
2018-11-26T20:19:14.670Z,12.67
2018-11-26T20:21:44.043Z,15.10
2018-11-26T20:24:13.083Z,13.67
2018-11-26T20:26:43.884Z,13.80
2018-11-26T20:29:12.695Z,15.07
2018-11-26T20:31:42.000Z,16.00
2018-11-26T20:34:11.411Z,12.33
2018-11-26T20:36:40.787Z,14.90
2018-11-26T20:39:19.471Z,14.30
2018-11-26T20:41:50.127Z,13.63
2018-11-26T20:44:19.400Z,12.63
2018-11-26T20:46:49.257Z,15.23
2018-11-26T20:49:16.888Z,13.87
2018-11-26T20:51:46.078Z,12.47
2018-11-26T20:54:14.822Z,15.00
2018-11-26T20:56:43.452Z,15.77
2018-11-26T20:59:14.423Z,12.67
2018-11-26T21:01:43.292Z,11.13
2018-11-26T21:04:12.203Z,11.37
2018-11-26T21:06:40.932Z,10.67
2018-11-26T21:09:09.800Z,15.03
2018-11-26T21:11:38.971Z,13.37
2018-11-26T21:14:12.839Z,14.63
2018-11-26T21:16:43.115Z,13.10
2018-11-26T21:19:13.487Z,15.70
2018-11-26T21:21:46.779Z,13.77
2018-11-26T21:24:15.521Z,13.10
2018-11-26T21:26:44.107Z,13.30
2018-11-26T21:29:12.829Z,14.20
2018-11-26T21:31:41.777Z,13.83
2018-11-26T21:34:10.427Z,13.40
2018-11-26T21:36:39.219Z,14.00
2018-11-26T21:39:10.145Z,13.00
2018-11-26T21:41:39.083Z,14.60
2018-11-26T21:44:07.877Z,14.30
2018-11-26T21:46:37.610Z,15.07
2018-11-26T21:49:06.452Z,14.20
2018-11-26T21:51:36.391Z,12.27
2018-11-26T21:54:05.208Z,14.87
2018-11-26T21:56:35.533Z,15.67
2018-11-26T21:59:06.591Z,16.23
2018-11-26T22:04:32.227Z,15.10
2018-11-26T22:07:01.979Z,14.37
2018-11-26T22:09:40.331Z,16.17
2018-11-26T22:12:09.177Z,17.53
2018-11-26T22:14:37.943Z,16.93
2018-11-26T22:17:07.599Z,14.10
2018-11-26T22:19:36.256Z,16.83
2018-11-26T22:22:05.118Z,15.37
2018-11-26T22:24:36.151Z,13.40
2018-11-26T22:27:04.734Z,16.80
2018-11-26T22:29:33.335Z,14.97
2018-11-26T22:32:02.138Z,16.60
2018-11-26T22:34:30.765Z,16.60
2018-11-26T22:36:59.505Z,14.53
2018-11-26T22:39:28.608Z,14.00
2018-11-26T22:41:57.598Z,12.80
2018-11-26T22:44:26.142Z,18.70
2018-11-26T22:46:55.927Z,14.77
2018-11-26T22:49:24.750Z,14.60
2018-11-26T22:51:53.767Z,13.00
2018-11-26T22:54:22.419Z,14.90
2018-11-26T22:56:50.895Z,17.20
2018-11-26T22:59:20.256Z,10.60
2018-11-26T23:01:48.825Z,16.10
2018-11-26T23:04:17.515Z,16.10
2018-11-26T23:06:46.091Z,13.50
2018-11-26T23:09:14.933Z,12.87
2018-11-26T23:11:43.476Z,12.30
2018-11-26T23:14:12.118Z,12.50
2018-11-26T23:16:40.737Z,10.37
2018-11-26T23:19:09.267Z,13.60
2018-11-26T23:21:41.048Z,12.00
2018-11-26T23:24:09.646Z,12.87
2018-11-26T23:26:38.337Z,11.23
2018-11-26T23:29:08.094Z,12.33
2018-11-26T23:31:43.648Z,12.73
2018-11-26T23:34:12.132Z,11.57
2018-11-26T23:36:40.639Z,11.70
2018-11-26T23:39:09.419Z,13.67
2018-11-26T23:41:42.359Z,2.50
2018-11-26T23:44:11.794Z,1.00
2018-11-26T23:46:40.342Z,1.63
2018-11-26T23:49:09.094Z,1.73
2018-11-26T23:51:37.785Z,1.43
2018-11-26T23:54:06.592Z,2.73
2018-11-26T23:59:20.916Z,0.60
